Pagrindinis puslapis
METAR-TAF:

METAR-TAF

Oro uostai :

Kanoya, Japonija

platuma: 31-22N, ilguma: 130-50E, Aukštis: 65 m

Dabartinis oras

Ataskaita buvo paskelbta 21 minutes, ne 14:46 UTC
Vėjas 1 kt nuo kintamojo kryptimis
Temperatūra 2°C
Drėgmė 87%
Slėgis 1024 hPa
Matomumas: 1500 m
Rūkas lopais, rūkana

METAR: RJFY 071446Z VRB01KT 1500 R26/0500V1500D BCFG BR NSC 02/00 Q1024 RMK A3026 R0700 FG SE-SW VIS VRB

Laikas: 00:07 (15:07 UTC)


TAF: trūkstamas

Orai ataskaitas ir orų prognozės (METAR, TAF).

turimą stotys yra geltonos ir raudonos taškus žemėlapyje.

Perkelti pele per norėdami pamatyti stoties vardą.

Tada spustelėkite, norėdami matyti oro stebėjimo ir prognozės.

Norėdami pakeisti žemėlapį: spustelėkite ant žalios mygtukų su juodo kryžiaus žemyn,; žalią mygtuką su brūkšneliu, jei norite nutolinti; arba žalių rodyklių gretimoms žemėlapius.


METAR-TAF: